Hauptseite
METAR-TAF:

METAR-TAF

Flughäfen :

Militärflugplatz Gilze-Rijen

Gilze-Rijen, Niederlande

Breite: 51-34N, Länge: 004-56E, Höhe: 15 m

Beobachtung

Neuester Wetterbericht von vor 24 Minuten, um 12:25 UTC
Wind 9 kt aus Nord, Böen bis zu 18 kt, variierte zwischen West/Nordwest und Ost/Nordost
Temperatur 16°C
Luftfeuchtigkeit 48%
Luftdruck 1033 hPa
Sichtweite 10 km oder mehr
Aufgelockert bewölkt in der Höhe von 3500 ft

METAR: EHGR 221225Z AUTO 01011KT 300V070 9999 NCD 16/05 Q1033 BLU 36009G18KT 9999 SCT035

Zeit: 14:49 (12:49 UTC)

Prognose

Neuester Wetterbericht von vor 4 Stunden und 13 Minuten, um 08:36 UTC
Gültige Prognose vom 22 um 09 UTC bis 22 um 21 UTC
Wind 12 kt aus Nord
Sichtweite 10 km oder mehr
Durchbrochene Bewölkung in der Höhe von 3000 ft
Übergehend zu
vom 22 um 16 UTC bis 22 um 19 UTC
Wind 5 kt aus West

TAF: EHGR 220836Z 2209/2221 01012KT 9999 BKN030 BECMG 2216/2219 27005KT

Wetterbeobachtungen und Prognosen von mehr als 4000 Flughäfen (METAR und TAF Bericht).

Die verfügbaren Stationen werden durch gelbe und rote Markierungen auf der Karte dargestellt.

Führen Sie die Maus auf sie, um den Namen der Station zu sehen.

Darauf klicken, um die Beobachtung von Wetterbeobachtungen und Prognosen zu sehen.

Um die Karte zu ändern : klicken Sie auf den grünen Tasten mit einem schwarzen Kreuz Zum Vergrößern, auf den grünen Button mit einem Gedankenstrich zu verkleinern, oder auf die grünen Pfeile für benachbarte Karten.


METAR-TAF: